createdAt,value
2023-05-22T00:01:46.870Z,7.57
2023-05-22T00:04:13.785Z,8.03
2023-05-22T00:06:43.844Z,8.00
2023-05-22T00:09:11.064Z,7.40
2023-05-22T00:11:39.392Z,7.37
2023-05-22T00:14:06.479Z,6.87
2023-05-22T00:16:33.349Z,7.47
2023-05-22T00:19:01.068Z,7.10
2023-05-22T00:21:27.987Z,7.13
2023-05-22T00:23:54.792Z,7.37
2023-05-22T00:26:23.942Z,8.63
2023-05-22T00:28:50.780Z,8.23
2023-05-22T00:31:17.609Z,6.87
2023-05-22T00:33:44.366Z,7.30
2023-05-22T00:36:11.113Z,6.73
2023-05-22T00:38:38.136Z,8.00
2023-05-22T00:41:06.833Z,8.03
2023-05-22T00:43:34.172Z,7.50
2023-05-22T00:46:01.114Z,8.33
2023-05-22T00:48:27.978Z,7.23
2023-05-22T00:50:57.919Z,10.83
2023-05-22T00:53:26.103Z,7.63
2023-05-22T00:56:19.684Z,8.57
2023-05-22T00:58:46.769Z,8.60
2023-05-22T01:01:13.988Z,8.27
2023-05-22T01:03:44.873Z,8.23
2023-05-22T01:06:13.366Z,8.50
2023-05-22T01:08:41.320Z,8.30
2023-05-22T01:15:41.243Z,7.77
2023-05-22T01:18:11.166Z,8.57
2023-05-22T01:20:52.833Z,7.57
2023-05-22T01:23:19.634Z,7.87
2023-05-22T01:30:23.582Z,10.33
2023-05-22T01:32:52.816Z,8.50
2023-05-22T01:35:21.460Z,8.83
2023-05-22T01:41:37.372Z,7.70
2023-05-22T01:44:04.329Z,7.97
2023-05-22T01:46:35.736Z,8.73
2023-05-22T01:49:02.631Z,8.27
2023-05-22T01:55:48.406Z,8.07
2023-05-22T01:58:43.361Z,7.80
2023-05-22T02:01:12.156Z,7.77
2023-05-22T02:03:40.386Z,8.57
2023-05-22T02:10:10.143Z,8.07
2023-05-22T02:12:37.678Z,8.17
2023-05-22T02:15:06.326Z,8.13
2023-05-22T02:17:40.409Z,10.60
2023-05-22T07:44:14.600Z,7.20
2023-05-22T07:46:41.633Z,7.53
2023-05-22T07:49:09.408Z,6.40
2023-05-22T07:51:36.512Z,6.90
2023-05-22T07:54:03.352Z,6.53
2023-05-22T07:56:30.725Z,6.90
2023-05-22T07:58:57.592Z,6.87
2023-05-22T08:01:24.474Z,6.30
2023-05-22T08:03:51.534Z,6.73
2023-05-22T08:06:18.547Z,6.67
2023-05-22T08:08:45.454Z,6.60
2023-05-22T08:11:12.421Z,6.82
2023-05-22T08:13:39.283Z,6.85
2023-05-22T08:16:06.465Z,7.03
2023-05-22T08:18:33.363Z,7.25
2023-05-22T08:21:00.735Z,6.47
2023-05-22T08:23:27.535Z,6.53
2023-05-22T08:25:54.325Z,7.57
2023-05-22T08:28:21.284Z,7.18
2023-05-22T08:30:48.291Z,7.50
2023-05-22T08:33:15.244Z,7.15
2023-05-22T08:35:42.050Z,6.70
2023-05-22T08:38:08.854Z,7.35
2023-05-22T08:40:41.314Z,6.97
2023-05-22T08:43:10.415Z,6.85
2023-05-22T08:45:37.872Z,5.93
2023-05-22T08:48:06.231Z,7.25
2023-05-22T08:50:37.083Z,6.95
2023-05-22T08:53:06.736Z,7.05
2023-05-22T08:55:33.629Z,7.97
2023-05-22T08:58:01.442Z,7.03
2023-05-22T09:00:29.649Z,7.80
2023-05-22T09:02:57.637Z,6.30
2023-05-22T09:05:28.198Z,6.43
2023-05-22T09:07:58.354Z,6.70
2023-05-22T09:10:29.906Z,6.72
2023-05-22T09:13:08.974Z,6.80
2023-05-22T09:15:37.498Z,6.47
2023-05-22T09:18:05.888Z,7.15
2023-05-22T09:20:37.998Z,10.98
2023-05-22T09:23:13.837Z,7.90
2023-05-22T09:25:42.455Z,7.05
2023-05-22T09:28:10.893Z,7.47
2023-05-22T09:30:38.169Z,7.57
2023-05-22T09:33:09.072Z,6.40
2023-05-22T09:35:39.203Z,6.15
2023-05-22T09:38:06.606Z,7.10
2023-05-22T09:40:34.999Z,6.35
2023-05-22T09:43:06.624Z,7.78
2023-05-22T09:45:35.171Z,6.63
2023-05-22T09:48:05.834Z,6.88
2023-05-22T09:50:33.080Z,7.18
2023-05-22T09:53:05.810Z,7.18
2023-05-22T09:55:33.694Z,7.50
2023-05-22T09:58:05.439Z,7.20
2023-05-22T10:00:34.324Z,8.20
2023-05-22T10:03:12.082Z,6.68
2023-05-22T10:05:50.538Z,7.30
2023-05-22T10:08:29.790Z,6.70
2023-05-22T10:10:57.910Z,7.72
2023-05-22T10:13:26.415Z,7.55
2023-05-22T10:15:54.180Z,7.47
2023-05-22T10:18:21.723Z,8.32
2023-05-22T10:20:48.991Z,7.47
2023-05-22T10:23:16.831Z,8.00
2023-05-22T10:25:45.608Z,7.68
2023-05-22T10:28:21.473Z,7.40
2023-05-22T10:30:56.354Z,8.27
2023-05-22T10:33:29.435Z,8.10
2023-05-22T10:36:01.769Z,8.32
2023-05-22T10:38:31.468Z,8.40
2023-05-22T10:40:59.153Z,8.10
2023-05-22T10:43:31.668Z,7.53
2023-05-22T10:46:06.214Z,8.50
2023-05-22T10:48:40.453Z,7.57
2023-05-22T10:51:08.359Z,7.60
2023-05-22T10:53:36.192Z,8.20
2023-05-22T10:56:16.504Z,7.88
2023-05-22T10:58:45.845Z,8.23
2023-05-22T11:01:21.186Z,7.78
2023-05-22T11:04:13.372Z,7.53
2023-05-22T11:06:43.562Z,8.32
2023-05-22T11:09:34.215Z,7.82
2023-05-22T11:12:31.337Z,7.82
2023-05-22T11:15:06.314Z,7.97
2023-05-22T11:17:36.355Z,6.95
2023-05-22T11:20:07.946Z,7.45
2023-05-22T11:22:37.119Z,7.10
2023-05-22T11:25:10.869Z,7.72
2023-05-22T11:27:39.333Z,7.30
2023-05-22T11:30:07.228Z,6.82
2023-05-22T11:32:36.726Z,5.97
2023-05-22T11:35:05.415Z,6.25
2023-05-22T11:37:32.804Z,6.88
2023-05-22T11:40:04.372Z,5.60
2023-05-22T11:42:31.379Z,6.97
2023-05-22T11:44:58.182Z,7.05
2023-05-22T11:47:29.118Z,6.38
2023-05-22T11:50:02.033Z,6.53
2023-05-22T11:52:36.570Z,7.25
2023-05-22T11:55:07.805Z,7.45
2023-05-22T11:57:35.764Z,6.80
2023-05-22T12:00:06.443Z,5.82
2023-05-22T12:02:33.409Z,6.05
2023-05-22T12:05:00.565Z,5.68
2023-05-22T12:07:27.823Z,6.10
2023-05-22T12:09:58.524Z,6.13
2023-05-22T12:12:26.061Z,5.97
2023-05-22T12:14:53.405Z,6.15
2023-05-22T12:17:20.365Z,5.85
2023-05-22T12:19:49.379Z,6.78
2023-05-22T12:22:16.159Z,6.35
2023-05-22T12:24:48.048Z,6.32
2023-05-22T12:27:15.472Z,5.60
2023-05-22T12:29:42.931Z,6.40
2023-05-22T12:32:11.624Z,5.60
2023-05-22T12:34:48.218Z,6.30
2023-05-22T12:37:28.408Z,6.40
2023-05-22T12:39:59.854Z,6.72
2023-05-22T12:42:27.653Z,5.57
2023-05-22T12:44:56.359Z,5.00
2023-05-22T12:47:24.493Z,5.00
2023-05-22T12:49:51.830Z,5.30
2023-05-22T12:52:18.727Z,4.53
2023-05-22T12:54:46.092Z,4.68
2023-05-22T12:57:12.859Z,5.68
2023-05-22T12:59:39.669Z,6.10
2023-05-22T13:02:06.774Z,6.90
2023-05-22T13:04:35.153Z,6.47
2023-05-22T13:07:01.973Z,6.35
2023-05-22T13:09:28.775Z,5.35
2023-05-22T13:11:55.655Z,5.47
2023-05-22T13:14:22.819Z,5.68
2023-05-22T13:16:49.593Z,5.38
2023-05-22T13:19:16.483Z,5.43
2023-05-22T13:21:43.750Z,5.53
2023-05-22T13:24:10.953Z,8.07
2023-05-22T13:26:37.765Z,5.97
2023-05-22T13:29:05.058Z,6.70
2023-05-22T13:31:37.139Z,6.40
2023-05-22T13:34:04.619Z,5.97
2023-05-22T13:36:31.648Z,6.38
2023-05-22T13:38:58.681Z,6.50
2023-05-22T13:41:25.580Z,6.25
2023-05-22T13:43:52.409Z,6.72
2023-05-22T13:46:21.072Z,6.30
2023-05-22T13:48:47.908Z,5.93
2023-05-22T13:51:14.716Z,6.10
2023-05-22T13:53:42.050Z,5.53
2023-05-22T13:56:08.818Z,6.60
2023-05-22T13:58:35.678Z,5.60
2023-05-22T14:01:02.456Z,5.30
2023-05-22T14:03:29.435Z,6.18
2023-05-22T14:05:56.227Z,5.78
2023-05-22T14:08:24.313Z,5.75
2023-05-22T14:10:51.225Z,5.90
2023-05-22T14:13:18.018Z,4.97
2023-05-22T14:15:46.922Z,5.93
2023-05-22T14:18:14.502Z,5.57
2023-05-22T14:20:41.490Z,5.10
2023-05-22T14:23:08.640Z,5.53
2023-05-22T14:25:35.515Z,5.32
2023-05-22T14:28:02.225Z,5.50
2023-05-22T14:30:29.016Z,5.95
2023-05-22T14:32:55.773Z,6.50
2023-05-22T14:35:22.756Z,6.22
2023-05-22T14:37:49.476Z,6.70
2023-05-22T14:40:16.329Z,6.55
2023-05-22T14:42:43.224Z,6.05
2023-05-22T14:45:10.393Z,6.82
2023-05-22T14:47:37.231Z,5.72
2023-05-22T14:50:18.287Z,6.57
2023-05-22T14:52:46.826Z,6.28
2023-05-22T14:55:13.533Z,6.35
2023-05-22T14:57:40.386Z,6.90
2023-05-22T15:00:09.703Z,7.28
2023-05-22T15:02:37.014Z,7.15
2023-05-22T15:05:04.504Z,7.15
2023-05-22T15:07:43.144Z,7.22
2023-05-22T15:10:11.250Z,7.80
2023-05-22T15:12:38.024Z,11.57
2023-05-22T15:15:05.123Z,8.57
2023-05-22T15:17:31.836Z,8.73
2023-05-22T15:19:58.603Z,8.30
2023-05-22T15:22:25.360Z,8.40
2023-05-22T15:25:06.741Z,8.25
2023-05-22T15:27:36.948Z,8.02
2023-05-22T15:30:04.817Z,8.15
2023-05-22T15:32:36.265Z,8.25
2023-05-22T15:35:03.384Z,7.90
2023-05-22T15:37:36.980Z,7.55
2023-05-22T15:40:04.598Z,7.25
2023-05-22T15:42:31.434Z,7.20
2023-05-22T15:45:00.169Z,11.35
2023-05-22T15:47:27.355Z,7.68
2023-05-22T15:49:54.152Z,7.32
2023-05-22T15:52:23.255Z,7.45
2023-05-22T15:54:50.111Z,6.60
2023-05-22T15:57:17.002Z,6.63
2023-05-22T15:59:43.705Z,6.45
2023-05-22T16:02:10.499Z,5.65
2023-05-22T16:04:37.195Z,5.85
2023-05-22T16:07:04.551Z,6.43
2023-05-22T16:09:32.789Z,5.93
2023-05-22T16:11:59.760Z,6.40
2023-05-22T16:14:26.477Z,6.30
2023-05-22T16:16:53.290Z,9.60
2023-05-22T16:19:20.051Z,8.10
2023-05-22T16:21:46.845Z,6.20
2023-05-22T16:24:13.614Z,6.18
2023-05-22T16:26:40.747Z,5.85
2023-05-22T16:29:11.147Z,5.88
2023-05-22T16:31:37.984Z,6.10
2023-05-22T16:34:05.525Z,6.25
2023-05-22T16:36:32.587Z,5.72
2023-05-22T16:38:59.468Z,6.40
2023-05-22T16:41:26.834Z,6.50
2023-05-22T16:43:53.700Z,6.15
2023-05-22T16:46:20.529Z,6.43
2023-05-22T16:48:47.301Z,5.78
2023-05-22T16:51:14.117Z,6.40
2023-05-22T16:53:41.848Z,6.43
2023-05-22T16:56:08.783Z,7.28
2023-05-22T16:58:35.788Z,6.60
2023-05-22T17:03:55.011Z,5.78
2023-05-22T17:06:22.734Z,6.38
2023-05-22T17:08:49.513Z,5.80
2023-05-22T17:11:16.326Z,5.40
2023-05-22T17:13:43.070Z,6.22
2023-05-22T17:16:09.845Z,5.85
2023-05-22T17:18:37.675Z,5.32
2023-05-22T17:21:04.573Z,5.57
2023-05-22T17:23:31.334Z,5.72
2023-05-22T17:25:58.134Z,5.57
2023-05-22T17:28:24.847Z,5.35
2023-05-22T17:30:51.651Z,6.00
2023-05-22T17:33:18.430Z,6.43
2023-05-22T17:35:45.586Z,6.40
2023-05-22T17:38:12.319Z,6.45
2023-05-22T17:40:45.622Z,6.72
2023-05-22T17:43:13.351Z,6.10
2023-05-22T17:45:40.416Z,6.38
2023-05-22T17:48:08.014Z,7.07
2023-05-22T17:50:34.978Z,6.57
2023-05-22T17:53:01.749Z,6.65
2023-05-22T17:55:28.476Z,7.35
2023-05-22T17:57:55.989Z,8.10
2023-05-22T18:00:22.760Z,7.25
2023-05-22T18:02:49.568Z,7.18
2023-05-22T18:05:16.409Z,7.72
2023-05-22T18:07:43.662Z,8.10
2023-05-22T18:10:10.839Z,8.35
2023-05-22T18:12:38.492Z,7.13
2023-05-22T18:15:08.459Z,7.20
2023-05-22T18:17:35.396Z,6.93
2023-05-22T18:20:02.196Z,7.07
2023-05-22T18:22:28.953Z,6.53
2023-05-22T18:24:56.220Z,6.43
2023-05-22T18:27:23.052Z,7.10
2023-05-22T18:29:51.679Z,7.13
2023-05-22T18:32:18.470Z,6.78
2023-05-22T18:34:45.232Z,6.88
2023-05-22T18:37:11.960Z,7.63
2023-05-22T18:39:38.701Z,7.43
2023-05-22T18:42:05.835Z,9.65
2023-05-22T18:44:32.637Z,7.67
2023-05-22T18:46:59.450Z,8.45
2023-05-22T18:49:26.352Z,9.20
2023-05-22T18:51:53.143Z,9.47
2023-05-22T18:54:19.880Z,10.37
2023-05-22T18:56:46.792Z,7.60
2023-05-22T18:59:13.497Z,7.37
2023-05-22T19:01:40.453Z,8.23
2023-05-22T19:04:07.640Z,8.20
2023-05-22T19:06:34.560Z,9.13
2023-05-22T19:09:01.740Z,8.33
2023-05-22T19:11:28.552Z,8.63
2023-05-22T19:13:55.567Z,7.63
2023-05-22T19:16:22.390Z,10.27
2023-05-22T19:18:49.164Z,11.87
2023-05-22T19:21:15.941Z,9.70
2023-05-22T19:23:42.772Z,7.20
2023-05-22T19:26:09.554Z,8.10
2023-05-22T19:28:36.331Z,8.37
2023-05-22T19:31:03.359Z,8.00
2023-05-22T19:33:33.715Z,8.23
2023-05-22T19:36:02.199Z,7.23
2023-05-22T19:38:29.128Z,9.37
2023-05-22T19:40:55.887Z,8.00
2023-05-22T19:43:22.902Z,8.60
2023-05-22T19:45:49.661Z,7.80
2023-05-22T19:48:16.458Z,7.73
2023-05-22T19:50:43.424Z,7.57
2023-05-22T19:53:10.390Z,8.30
2023-05-22T19:55:37.242Z,8.07
2023-05-22T19:58:04.060Z,8.17
2023-05-22T20:00:31.752Z,7.87
2023-05-22T20:02:58.587Z,8.00
2023-05-22T20:05:25.959Z,7.83
2023-05-22T20:07:52.805Z,7.30
2023-05-22T20:10:19.672Z,6.47
2023-05-22T20:12:47.133Z,7.07
2023-05-22T20:15:14.800Z,6.37
2023-05-22T20:17:42.530Z,7.10
2023-05-22T20:20:09.800Z,7.17
2023-05-22T20:22:36.617Z,7.40
2023-05-22T20:25:05.155Z,8.90
2023-05-22T20:27:32.072Z,7.40
2023-05-22T20:30:00.226Z,7.97
2023-05-22T20:32:27.577Z,7.77
2023-05-22T20:34:55.330Z,7.93
2023-05-22T20:37:22.386Z,7.30
2023-05-22T20:39:50.064Z,7.87
2023-05-22T20:42:19.900Z,8.17
2023-05-22T20:44:46.704Z,7.20
2023-05-22T20:47:13.470Z,8.03
2023-05-22T20:49:41.179Z,7.57
2023-05-22T20:52:09.940Z,7.80
2023-05-22T20:54:36.742Z,7.60
2023-05-22T20:57:03.793Z,8.73
2023-05-22T20:59:30.969Z,8.10
2023-05-22T21:01:58.022Z,8.20
2023-05-22T21:04:26.263Z,7.43
2023-05-22T21:06:53.100Z,8.40
2023-05-22T21:09:19.896Z,7.27
2023-05-22T21:11:46.785Z,7.90
2023-05-22T21:14:13.877Z,7.73
2023-05-22T21:16:40.786Z,7.30
2023-05-22T21:19:07.777Z,7.30
2023-05-22T21:21:36.249Z,8.17
2023-05-22T21:24:03.352Z,7.97
2023-05-22T21:26:30.132Z,7.93
2023-05-22T21:28:57.192Z,8.10
2023-05-22T21:31:24.029Z,7.53
2023-05-22T21:33:50.855Z,7.13
2023-05-22T21:36:17.672Z,7.30
2023-05-22T21:38:44.931Z,7.50
2023-05-22T21:41:12.285Z,7.90
2023-05-22T21:43:39.300Z,7.90
2023-05-22T21:46:06.072Z,8.03
2023-05-22T21:48:32.819Z,8.20
2023-05-22T21:50:59.631Z,8.50
2023-05-22T21:53:26.409Z,9.10
2023-05-22T21:55:53.168Z,8.43
2023-05-22T21:58:19.939Z,9.10
2023-05-22T22:00:46.651Z,8.03
2023-05-22T22:03:13.621Z,10.67
2023-05-22T22:05:41.030Z,9.37
2023-05-22T22:08:07.763Z,8.37
2023-05-22T22:10:34.531Z,8.27
2023-05-22T22:13:02.404Z,8.57
2023-05-22T22:15:29.362Z,7.70
2023-05-22T22:17:59.552Z,7.70
2023-05-22T22:20:42.375Z,9.13
2023-05-22T22:23:10.745Z,8.57
2023-05-22T22:25:39.174Z,8.03
2023-05-22T22:28:07.208Z,8.07
2023-05-22T22:30:35.159Z,7.80
2023-05-22T22:33:02.389Z,7.70
2023-05-22T22:35:29.398Z,8.07
2023-05-22T22:37:56.133Z,8.43
2023-05-22T22:40:24.724Z,8.43
2023-05-22T22:42:52.771Z,8.33
2023-05-22T22:45:19.561Z,8.07
2023-05-22T22:47:46.403Z,9.00
2023-05-22T22:50:13.224Z,7.90
2023-05-22T22:52:45.295Z,7.30
2023-05-22T22:55:12.417Z,7.67
2023-05-22T22:57:39.274Z,6.90
2023-05-22T23:00:06.727Z,8.30
2023-05-22T23:02:33.509Z,7.43
2023-05-22T23:05:00.426Z,7.67
2023-05-22T23:07:28.116Z,6.90
2023-05-22T23:09:54.877Z,6.97
2023-05-22T23:12:21.666Z,6.97
2023-05-22T23:14:50.430Z,6.90
2023-05-22T23:17:17.245Z,7.60
2023-05-22T23:19:44.257Z,6.20
2023-05-22T23:22:11.022Z,6.90
2023-05-22T23:24:37.983Z,7.73
2023-05-22T23:27:04.917Z,7.33
2023-05-22T23:29:31.617Z,7.53
2023-05-22T23:31:58.416Z,7.07
2023-05-22T23:34:25.274Z,7.40
2023-05-22T23:36:52.008Z,6.90
2023-05-22T23:39:18.723Z,7.50
2023-05-22T23:41:45.544Z,6.97
2023-05-22T23:44:12.344Z,6.60
2023-05-22T23:46:39.803Z,6.30
2023-05-22T23:49:07.365Z,7.10
2023-05-22T23:51:34.119Z,7.20
2023-05-22T23:54:01.138Z,7.03
2023-05-22T23:56:28.005Z,6.70
2023-05-22T23:58:54.739Z,6.97
